sensor_id;sensor_type;location;lat;lon;timestamp;P1;durP1;ratioP1;P2;durP2;ratioP2
65086;SDS011;52094;51.234;-2.310;2022-07-18T02:34:13;4.35;;;2.33;;
65086;SDS011;52094;51.234;-2.310;2022-07-18T02:38:55;4.97;;;2.58;;
65086;SDS011;52094;51.234;-2.310;2022-07-18T02:43:33;5.20;;;2.50;;
65086;SDS011;52094;51.234;-2.310;2022-07-18T02:52:28;4.60;;;2.67;;
65086;SDS011;52094;51.234;-2.310;2022-07-18T02:56:31;4.18;;;2.00;;
65086;SDS011;52094;51.234;-2.310;2022-07-18T03:00:41;5.00;;;2.47;;
65086;SDS011;52094;51.234;-2.310;2022-07-18T03:04:48;5.07;;;2.42;;
65086;SDS011;52094;51.234;-2.310;2022-07-18T03:09:11;4.35;;;2.28;;
65086;SDS011;52094;51.234;-2.310;2022-07-18T03:13:04;3.60;;;2.00;;
65086;SDS011;52094;51.234;-2.310;2022-07-18T03:16:54;6.25;;;2.00;;
65086;SDS011;52094;51.234;-2.310;2022-07-18T03:21:05;4.13;;;1.83;;
65086;SDS011;52094;51.234;-2.310;2022-07-18T03:29:34;4.13;;;2.40;;
65086;SDS011;52094;51.234;-2.310;2022-07-18T03:33:52;5.60;;;2.72;;
65086;SDS011;52094;51.234;-2.310;2022-07-18T03:38:00;4.88;;;3.10;;
65086;SDS011;52094;51.234;-2.310;2022-07-18T03:45:49;5.15;;;2.78;;
65086;SDS011;52094;51.234;-2.310;2022-07-18T03:49:54;5.35;;;2.67;;
65086;SDS011;52094;51.234;-2.310;2022-07-18T03:53:53;4.32;;;2.38;;
65086;SDS011;52094;51.234;-2.310;2022-07-18T03:58:09;4.68;;;2.10;;
65086;SDS011;52094;51.234;-2.310;2022-07-18T04:02:03;5.07;;;2.40;;
65086;SDS011;52094;51.234;-2.310;2022-07-18T04:06:14;5.07;;;2.53;;
65086;SDS011;52094;51.234;-2.310;2022-07-18T04:10:14;4.28;;;2.30;;
65086;SDS011;52094;51.234;-2.310;2022-07-18T04:14:08;5.15;;;2.55;;
65086;SDS011;52094;51.234;-2.310;2022-07-18T04:18:00;4.30;;;2.55;;
65086;SDS011;52094;51.234;-2.310;2022-07-18T04:22:03;4.80;;;2.55;;
65086;SDS011;52094;51.234;-2.310;2022-07-18T04:25:55;5.20;;;3.10;;
65086;SDS011;52094;51.234;-2.310;2022-07-18T04:30:06;4.15;;;2.58;;
65086;SDS011;52094;51.234;-2.310;2022-07-18T04:33:53;4.25;;;2.50;;
65086;SDS011;52094;51.234;-2.310;2022-07-18T04:37:52;5.45;;;2.35;;
65086;SDS011;52094;51.234;-2.310;2022-07-18T04:41:47;6.15;;;2.50;;
65086;SDS011;52094;51.234;-2.310;2022-07-18T04:45:39;4.95;;;2.28;;
65086;SDS011;52094;51.234;-2.310;2022-07-18T04:49:29;3.85;;;2.10;;
65086;SDS011;52094;51.234;-2.310;2022-07-18T04:53:26;4.10;;;2.28;;
65086;SDS011;52094;51.234;-2.310;2022-07-18T04:57:09;4.63;;;2.53;;
65086;SDS011;52094;51.234;-2.310;2022-07-18T05:01:12;5.00;;;3.05;;
65086;SDS011;52094;51.234;-2.310;2022-07-18T05:04:58;6.03;;;2.72;;
65086;SDS011;52094;51.234;-2.310;2022-07-18T05:08:40;4.55;;;2.53;;
65086;SDS011;52094;51.234;-2.310;2022-07-18T05:12:25;5.78;;;3.17;;
65086;SDS011;52094;51.234;-2.310;2022-07-18T05:16:17;4.32;;;2.47;;
65086;SDS011;52094;51.234;-2.310;2022-07-18T05:20:03;5.30;;;3.10;;
65086;SDS011;52094;51.234;-2.310;2022-07-18T05:23:48;4.72;;;2.95;;
65086;SDS011;52094;51.234;-2.310;2022-07-18T05:27:31;4.70;;;2.90;;
65086;SDS011;52094;51.234;-2.310;2022-07-18T05:31:18;4.60;;;2.95;;
65086;SDS011;52094;51.234;-2.310;2022-07-18T05:35:01;6.18;;;3.10;;
65086;SDS011;52094;51.234;-2.310;2022-07-18T05:38:57;5.75;;;3.15;;
65086;SDS011;52094;51.234;-2.310;2022-07-18T05:42:55;4.78;;;3.00;;
65086;SDS011;52094;51.234;-2.310;2022-07-18T05:46:53;6.35;;;3.70;;
65086;SDS011;52094;51.234;-2.310;2022-07-18T05:50:38;5.22;;;3.30;;
65086;SDS011;52094;51.234;-2.310;2022-07-18T05:54:27;4.15;;;2.60;;
65086;SDS011;52094;51.234;-2.310;2022-07-18T05:58:13;7.32;;;3.65;;
65086;SDS011;52094;51.234;-2.310;2022-07-18T06:02:05;6.90;;;4.25;;
65086;SDS011;52094;51.234;-2.310;2022-07-18T06:05:51;8.43;;;4.28;;
65086;SDS011;52094;51.234;-2.310;2022-07-18T06:09:44;7.10;;;4.10;;
65086;SDS011;52094;51.234;-2.310;2022-07-18T06:13:30;6.57;;;3.97;;
65086;SDS011;52094;51.234;-2.310;2022-07-18T06:17:15;6.70;;;4.10;;
65086;SDS011;52094;51.234;-2.310;2022-07-18T06:21:22;6.68;;;4.85;;
65086;SDS011;52094;51.234;-2.310;2022-07-18T06:25:15;6.00;;;4.05;;
65086;SDS011;52094;51.234;-2.310;2022-07-18T06:29:02;5.93;;;3.90;;
65086;SDS011;52094;51.234;-2.310;2022-07-18T06:32:46;6.65;;;4.20;;
65086;SDS011;52094;51.234;-2.310;2022-07-18T06:41:39;6.10;;;3.78;;
65086;SDS011;52094;51.234;-2.310;2022-07-18T06:55:53;5.80;;;3.90;;
65086;SDS011;52094;51.234;-2.310;2022-07-18T07:09:25;5.40;;;2.90;;
65086;SDS011;52094;51.234;-2.310;2022-07-18T07:13:14;5.07;;;2.88;;
65086;SDS011;52094;51.234;-2.310;2022-07-18T07:17:18;5.53;;;3.00;;
65086;SDS011;52094;51.234;-2.310;2022-07-18T07:21:47;4.20;;;2.90;;
65086;SDS011;52094;51.234;-2.310;2022-07-18T07:26:08;6.05;;;3.10;;
65086;SDS011;52094;51.234;-2.310;2022-07-18T07:30:00;6.20;;;2.97;;
65086;SDS011;52094;51.234;-2.310;2022-07-18T07:34:42;4.28;;;2.55;;
65086;SDS011;52094;51.234;-2.310;2022-07-18T07:38:47;4.30;;;2.58;;
65086;SDS011;52094;51.234;-2.310;2022-07-18T07:47:29;3.97;;;2.47;;
65086;SDS011;52094;51.234;-2.310;2022-07-18T07:55:49;5.10;;;2.70;;
65086;SDS011;52094;51.234;-2.310;2022-07-18T07:59:35;5.00;;;2.47;;
65086;SDS011;52094;51.234;-2.310;2022-07-18T08:03:20;6.43;;;3.00;;
65086;SDS011;52094;51.234;-2.310;2022-07-18T08:07:03;4.03;;;2.55;;
65086;SDS011;52094;51.234;-2.310;2022-07-18T08:10:58;4.18;;;2.58;;
65086;SDS011;52094;51.234;-2.310;2022-07-18T08:14:52;5.00;;;2.72;;
65086;SDS011;52094;51.234;-2.310;2022-07-18T08:18:41;5.80;;;2.40;;
65086;SDS011;52094;51.234;-2.310;2022-07-18T08:22:31;4.70;;;2.55;;
65086;SDS011;52094;51.234;-2.310;2022-07-18T08:26:14;4.18;;;2.50;;
65086;SDS011;52094;51.234;-2.310;2022-07-18T08:30:07;4.25;;;2.72;;
65086;SDS011;52094;51.234;-2.310;2022-07-18T08:38:31;5.82;;;2.65;;
65086;SDS011;52094;51.234;-2.310;2022-07-18T08:42:25;3.72;;;2.25;;
65086;SDS011;52094;51.234;-2.310;2022-07-18T08:46:36;4.40;;;2.20;;
65086;SDS011;52094;51.234;-2.310;2022-07-18T08:50:27;3.88;;;2.10;;
65086;SDS011;52094;51.234;-2.310;2022-07-18T08:54:10;3.42;;;1.83;;
65086;SDS011;52094;51.234;-2.310;2022-07-18T08:58:06;3.60;;;2.03;;
65086;SDS011;52094;51.234;-2.310;2022-07-18T09:02:23;3.83;;;2.17;;
65086;SDS011;52094;51.234;-2.310;2022-07-18T09:06:18;3.75;;;1.80;;
65086;SDS011;52094;51.234;-2.310;2022-07-18T09:10:12;3.67;;;2.15;;
65086;SDS011;52094;51.234;-2.310;2022-07-18T09:13:57;4.05;;;1.95;;
65086;SDS011;52094;51.234;-2.310;2022-07-18T09:22:46;3.88;;;2.10;;
65086;SDS011;52094;51.234;-2.310;2022-07-18T09:26:46;3.30;;;1.80;;
65086;SDS011;52094;51.234;-2.310;2022-07-18T09:30:38;4.50;;;1.92;;
65086;SDS011;52094;51.234;-2.310;2022-07-18T09:34:44;3.80;;;1.95;;
65086;SDS011;52094;51.234;-2.310;2022-07-18T09:38:38;3.13;;;1.73;;
65086;SDS011;52094;51.234;-2.310;2022-07-18T09:42:34;3.45;;;1.98;;
65086;SDS011;52094;51.234;-2.310;2022-07-18T09:46:21;2.85;;;1.63;;
65086;SDS011;52094;51.234;-2.310;2022-07-18T09:50:18;2.88;;;1.60;;
65086;SDS011;52094;51.234;-2.310;2022-07-18T09:54:39;4.18;;;1.70;;
65086;SDS011;52094;51.234;-2.310;2022-07-18T09:58:40;2.13;;;1.42;;
65086;SDS011;52094;51.234;-2.310;2022-07-18T10:02:58;3.78;;;1.90;;
65086;SDS011;52094;51.234;-2.310;2022-07-18T10:06:59;2.70;;;1.65;;
65086;SDS011;52094;51.234;-2.310;2022-07-18T10:11:31;3.15;;;1.70;;
65086;SDS011;52094;51.234;-2.310;2022-07-18T10:15:32;2.33;;;1.50;;
65086;SDS011;52094;51.234;-2.310;2022-07-18T10:24:42;4.10;;;1.85;;
65086;SDS011;52094;51.234;-2.310;2022-07-18T10:32:59;2.72;;;1.60;;
65086;SDS011;52094;51.234;-2.310;2022-07-18T10:37:31;3.67;;;1.88;;
65086;SDS011;52094;51.234;-2.310;2022-07-18T10:41:22;3.47;;;1.70;;
65086;SDS011;52094;51.234;-2.310;2022-07-18T10:58:21;5.32;;;1.70;;
65086;SDS011;52094;51.234;-2.310;2022-07-18T11:02:15;4.18;;;1.67;;
65086;SDS011;52094;51.234;-2.310;2022-07-18T11:06:21;4.03;;;1.50;;
65086;SDS011;52094;51.234;-2.310;2022-07-18T11:10:10;2.72;;;1.50;;
65086;SDS011;52094;51.234;-2.310;2022-07-18T11:13:53;3.05;;;1.42;;
65086;SDS011;52094;51.234;-2.310;2022-07-18T11:21:52;3.08;;;1.45;;
65086;SDS011;52094;51.234;-2.310;2022-07-18T11:26:09;2.58;;;1.58;;
65086;SDS011;52094;51.234;-2.310;2022-07-18T11:34:58;2.85;;;1.60;;
65086;SDS011;52094;51.234;-2.310;2022-07-18T11:39:02;4.00;;;1.52;;
65086;SDS011;52094;51.234;-2.310;2022-07-18T11:43:05;2.45;;;1.55;;
65086;SDS011;52094;51.234;-2.310;2022-07-18T11:47:05;4.10;;;1.55;;
65086;SDS011;52094;51.234;-2.310;2022-07-18T11:55:49;3.83;;;1.60;;
65086;SDS011;52094;51.234;-2.310;2022-07-18T12:03:44;3.05;;;1.60;;
65086;SDS011;52094;51.234;-2.310;2022-07-18T12:07:45;3.47;;;1.60;;
65086;SDS011;52094;51.234;-2.310;2022-07-18T12:11:36;3.42;;;1.52;;
65086;SDS011;52094;51.234;-2.310;2022-07-18T12:20:16;3.83;;;1.80;;
65086;SDS011;52094;51.234;-2.310;2022-07-18T12:24:16;4.05;;;1.80;;
65086;SDS011;52094;51.234;-2.310;2022-07-18T12:28:13;4.00;;;1.90;;
65086;SDS011;52094;51.234;-2.310;2022-07-18T12:32:14;4.47;;;1.90;;
65086;SDS011;52094;51.234;-2.310;2022-07-18T12:36:08;2.97;;;1.50;;
65086;SDS011;52094;51.234;-2.310;2022-07-18T12:40:07;3.38;;;1.80;;
65086;SDS011;52094;51.234;-2.310;2022-07-18T12:44:07;3.35;;;1.75;;
65086;SDS011;52094;51.234;-2.310;2022-07-18T12:47:57;4.28;;;2.40;;
65086;SDS011;52094;51.234;-2.310;2022-07-18T12:51:50;4.40;;;2.03;;
65086;SDS011;52094;51.234;-2.310;2022-07-18T12:55:51;2.88;;;1.67;;
65086;SDS011;52094;51.234;-2.310;2022-07-18T12:59:47;4.05;;;2.08;;
65086;SDS011;52094;51.234;-2.310;2022-07-18T13:03:34;3.28;;;1.70;;
65086;SDS011;52094;51.234;-2.310;2022-07-18T13:07:17;4.57;;;1.90;;
65086;SDS011;52094;51.234;-2.310;2022-07-18T13:11:02;3.28;;;1.80;;
65086;SDS011;52094;51.234;-2.310;2022-07-18T13:14:51;4.20;;;1.80;;
65086;SDS011;52094;51.234;-2.310;2022-07-18T13:22:42;2.95;;;1.80;;
65086;SDS011;52094;51.234;-2.310;2022-07-18T13:26:35;3.88;;;1.75;;
65086;SDS011;52094;51.234;-2.310;2022-07-18T13:30:41;4.75;;;1.80;;
65086;SDS011;52094;51.234;-2.310;2022-07-18T13:34:23;3.70;;;2.10;;
65086;SDS011;52094;51.234;-2.310;2022-07-18T13:38:06;3.70;;;1.70;;
65086;SDS011;52094;51.234;-2.310;2022-07-18T13:42:16;3.25;;;1.60;;
65086;SDS011;52094;51.234;-2.310;2022-07-18T13:46:01;2.65;;;1.63;;
65086;SDS011;52094;51.234;-2.310;2022-07-18T13:50:19;3.97;;;1.88;;
65086;SDS011;52094;51.234;-2.310;2022-07-18T13:54:02;3.78;;;1.80;;
65086;SDS011;52094;51.234;-2.310;2022-07-18T13:57:57;4.95;;;1.90;;
65086;SDS011;52094;51.234;-2.310;2022-07-18T14:01:46;2.58;;;1.60;;
65086;SDS011;52094;51.234;-2.310;2022-07-18T14:05:49;3.97;;;1.80;;
65086;SDS011;52094;51.234;-2.310;2022-07-18T14:09:45;4.55;;;1.50;;
65086;SDS011;52094;51.234;-2.310;2022-07-18T14:14:11;3.42;;;1.80;;
65086;SDS011;52094;51.234;-2.310;2022-07-18T14:17:54;3.75;;;1.60;;
65086;SDS011;52094;51.234;-2.310;2022-07-18T14:21:45;2.78;;;1.55;;
65086;SDS011;52094;51.234;-2.310;2022-07-18T14:26:12;3.05;;;1.50;;
65086;SDS011;52094;51.234;-2.310;2022-07-18T14:30:43;2.08;;;1.40;;
65086;SDS011;52094;51.234;-2.310;2022-07-18T14:34:29;3.20;;;1.77;;
65086;SDS011;52094;51.234;-2.310;2022-07-18T14:38:13;3.60;;;1.60;;
65086;SDS011;52094;51.234;-2.310;2022-07-18T14:41:57;3.50;;;1.42;;
65086;SDS011;52094;51.234;-2.310;2022-07-18T14:45:43;2.42;;;1.38;;
65086;SDS011;52094;51.234;-2.310;2022-07-18T14:49:49;2.63;;;1.38;;
65086;SDS011;52094;51.234;-2.310;2022-07-18T14:53:32;3.58;;;1.40;;
65086;SDS011;52094;51.234;-2.310;2022-07-18T14:57:38;3.20;;;1.60;;
65086;SDS011;52094;51.234;-2.310;2022-07-18T15:01:21;2.45;;;1.50;;
65086;SDS011;52094;51.234;-2.310;2022-07-18T15:05:24;6.50;;;1.92;;
65086;SDS011;52094;51.234;-2.310;2022-07-18T15:09:09;2.78;;;1.52;;
65086;SDS011;52094;51.234;-2.310;2022-07-18T15:12:56;2.83;;;1.52;;
65086;SDS011;52094;51.234;-2.310;2022-07-18T15:16:48;3.67;;;1.48;;
65086;SDS011;52094;51.234;-2.310;2022-07-18T15:20:58;3.33;;;1.73;;
65086;SDS011;52094;51.234;-2.310;2022-07-18T15:24:40;2.72;;;1.50;;
65086;SDS011;52094;51.234;-2.310;2022-07-18T15:28:26;2.70;;;1.55;;
65086;SDS011;52094;51.234;-2.310;2022-07-18T15:32:32;3.13;;;1.50;;
65086;SDS011;52094;51.234;-2.310;2022-07-18T15:36:14;3.13;;;1.50;;
65086;SDS011;52094;51.234;-2.310;2022-07-18T15:39:56;3.25;;;1.60;;
65086;SDS011;52094;51.234;-2.310;2022-07-18T15:43:43;2.75;;;1.58;;
65086;SDS011;52094;51.234;-2.310;2022-07-18T15:47:41;2.83;;;1.60;;
65086;SDS011;52094;51.234;-2.310;2022-07-18T15:51:28;2.50;;;1.40;;
65086;SDS011;52094;51.234;-2.310;2022-07-18T15:55:11;2.53;;;1.52;;
65086;SDS011;52094;51.234;-2.310;2022-07-18T15:59:03;2.75;;;1.60;;
65086;SDS011;52094;51.234;-2.310;2022-07-18T16:02:51;2.67;;;1.30;;
65086;SDS011;52094;51.234;-2.310;2022-07-18T16:06:42;3.25;;;1.50;;
65086;SDS011;52094;51.234;-2.310;2022-07-18T16:11:02;2.33;;;1.40;;
65086;SDS011;52094;51.234;-2.310;2022-07-18T16:14:52;3.17;;;1.48;;
65086;SDS011;52094;51.234;-2.310;2022-07-18T16:19:06;2.42;;;1.35;;
65086;SDS011;52094;51.234;-2.310;2022-07-18T16:23:02;4.85;;;1.60;;
65086;SDS011;52094;51.234;-2.310;2022-07-18T16:26:59;2.20;;;1.40;;
65086;SDS011;52094;51.234;-2.310;2022-07-18T16:30:44;2.55;;;1.30;;
65086;SDS011;52094;51.234;-2.310;2022-07-18T16:34:58;3.15;;;1.30;;
65086;SDS011;52094;51.234;-2.310;2022-07-18T16:38:45;2.63;;;1.50;;
65086;SDS011;52094;51.234;-2.310;2022-07-18T16:42:28;3.08;;;1.50;;
65086;SDS011;52094;51.234;-2.310;2022-07-18T16:46:11;2.53;;;1.30;;
65086;SDS011;52094;51.234;-2.310;2022-07-18T16:54:24;2.28;;;1.40;;
65086;SDS011;52094;51.234;-2.310;2022-07-18T16:58:14;3.10;;;1.20;;
65086;SDS011;52094;51.234;-2.310;2022-07-18T17:02:09;2.65;;;1.20;;
65086;SDS011;52094;51.234;-2.310;2022-07-18T17:06:14;4.38;;;1.45;;
65086;SDS011;52094;51.234;-2.310;2022-07-18T17:10:03;2.78;;;1.55;;
65086;SDS011;52094;51.234;-2.310;2022-07-18T17:13:57;3.30;;;1.30;;
65086;SDS011;52094;51.234;-2.310;2022-07-18T17:17:47;1.70;;;1.17;;
65086;SDS011;52094;51.234;-2.310;2022-07-18T17:22:06;3.05;;;1.45;;
65086;SDS011;52094;51.234;-2.310;2022-07-18T17:26:01;2.33;;;1.30;;
65086;SDS011;52094;51.234;-2.310;2022-07-18T17:34:29;2.47;;;1.50;;
65086;SDS011;52094;51.234;-2.310;2022-07-18T17:38:24;3.10;;;1.40;;
65086;SDS011;52094;51.234;-2.310;2022-07-18T17:42:22;4.00;;;1.55;;
65086;SDS011;52094;51.234;-2.310;2022-07-18T17:46:48;3.53;;;1.50;;
65086;SDS011;52094;51.234;-2.310;2022-07-18T17:51:02;2.35;;;1.50;;
65086;SDS011;52094;51.234;-2.310;2022-07-18T17:55:30;3.05;;;1.50;;
65086;SDS011;52094;51.234;-2.310;2022-07-18T17:59:38;3.47;;;1.40;;
65086;SDS011;52094;51.234;-2.310;2022-07-18T18:03:49;4.05;;;1.48;;
65086;SDS011;52094;51.234;-2.310;2022-07-18T18:07:53;3.33;;;1.52;;
65086;SDS011;52094;51.234;-2.310;2022-07-18T18:11:52;2.50;;;1.45;;
65086;SDS011;52094;51.234;-2.310;2022-07-18T18:15:37;3.83;;;1.58;;
65086;SDS011;52094;51.234;-2.310;2022-07-18T18:19:23;3.40;;;1.48;;
65086;SDS011;52094;51.234;-2.310;2022-07-18T18:23:10;2.83;;;1.45;;
65086;SDS011;52094;51.234;-2.310;2022-07-18T18:31:18;2.50;;;1.60;;
65086;SDS011;52094;51.234;-2.310;2022-07-18T18:35:13;2.72;;;1.58;;
65086;SDS011;52094;51.234;-2.310;2022-07-18T18:38:56;4.20;;;2.15;;
65086;SDS011;52094;51.234;-2.310;2022-07-18T18:42:46;2.90;;;1.60;;
65086;SDS011;52094;51.234;-2.310;2022-07-18T18:46:38;4.82;;;1.90;;
65086;SDS011;52094;51.234;-2.310;2022-07-18T18:50:21;3.67;;;1.80;;
65086;SDS011;52094;51.234;-2.310;2022-07-18T18:54:40;4.55;;;1.70;;
65086;SDS011;52094;51.234;-2.310;2022-07-18T18:58:27;3.90;;;1.88;;
65086;SDS011;52094;51.234;-2.310;2022-07-18T19:02:14;3.60;;;1.80;;
65086;SDS011;52094;51.234;-2.310;2022-07-18T19:05:57;2.55;;;1.67;;
65086;SDS011;52094;51.234;-2.310;2022-07-18T19:09:39;3.22;;;1.52;;
65086;SDS011;52094;51.234;-2.310;2022-07-18T19:13:22;3.58;;;1.80;;
65086;SDS011;52094;51.234;-2.310;2022-07-18T19:17:11;3.50;;;1.90;;
65086;SDS011;52094;51.234;-2.310;2022-07-18T19:20:59;3.27;;;1.60;;
65086;SDS011;52094;51.234;-2.310;2022-07-18T19:24:45;3.30;;;1.88;;
65086;SDS011;52094;51.234;-2.310;2022-07-18T19:28:30;4.22;;;1.88;;
65086;SDS011;52094;51.234;-2.310;2022-07-18T19:32:17;3.70;;;1.80;;
65086;SDS011;52094;51.234;-2.310;2022-07-18T19:36:03;3.50;;;1.50;;
65086;SDS011;52094;51.234;-2.310;2022-07-18T19:40:00;3.83;;;2.07;;
65086;SDS011;52094;51.234;-2.310;2022-07-18T19:43:52;4.10;;;1.98;;
65086;SDS011;52094;51.234;-2.310;2022-07-18T19:47:40;4.45;;;1.98;;
65086;SDS011;52094;51.234;-2.310;2022-07-18T19:51:35;5.22;;;2.35;;
65086;SDS011;52094;51.234;-2.310;2022-07-18T19:55:22;3.50;;;1.90;;
65086;SDS011;52094;51.234;-2.310;2022-07-18T19:59:11;3.30;;;1.80;;
65086;SDS011;52094;51.234;-2.310;2022-07-18T20:02:53;2.80;;;1.80;;
65086;SDS011;52094;51.234;-2.310;2022-07-18T20:06:35;4.00;;;1.80;;
65086;SDS011;52094;51.234;-2.310;2022-07-18T20:10:18;2.95;;;1.80;;
65086;SDS011;52094;51.234;-2.310;2022-07-18T20:14:04;3.97;;;2.00;;
65086;SDS011;52094;51.234;-2.310;2022-07-18T20:17:47;4.18;;;2.08;;
65086;SDS011;52094;51.234;-2.310;2022-07-18T20:21:35;4.28;;;2.00;;
65086;SDS011;52094;51.234;-2.310;2022-07-18T20:25:24;3.70;;;2.00;;
65086;SDS011;52094;51.234;-2.310;2022-07-18T20:29:22;4.07;;;1.90;;
65086;SDS011;52094;51.234;-2.310;2022-07-18T20:33:05;4.57;;;2.17;;
65086;SDS011;52094;51.234;-2.310;2022-07-18T20:37:01;4.53;;;1.90;;
65086;SDS011;52094;51.234;-2.310;2022-07-18T20:40:54;4.07;;;1.85;;
65086;SDS011;52094;51.234;-2.310;2022-07-18T20:44:39;3.50;;;1.75;;
65086;SDS011;52094;51.234;-2.310;2022-07-18T20:48:21;4.47;;;2.35;;
65086;SDS011;52094;51.234;-2.310;2022-07-18T20:52:06;4.38;;;1.90;;
65086;SDS011;52094;51.234;-2.310;2022-07-18T20:55:49;3.97;;;1.95;;
65086;SDS011;52094;51.234;-2.310;2022-07-18T20:59:34;3.20;;;1.90;;
65086;SDS011;52094;51.234;-2.310;2022-07-18T21:03:32;4.88;;;2.03;;
65086;SDS011;52094;51.234;-2.310;2022-07-18T21:07:15;4.10;;;1.85;;
65086;SDS011;52094;51.234;-2.310;2022-07-18T21:10:59;4.78;;;1.75;;
65086;SDS011;52094;51.234;-2.310;2022-07-18T21:14:44;3.35;;;1.80;;
65086;SDS011;52094;51.234;-2.310;2022-07-18T21:18:52;4.30;;;1.95;;
65086;SDS011;52094;51.234;-2.310;2022-07-18T21:22:37;4.45;;;2.03;;
65086;SDS011;52094;51.234;-2.310;2022-07-18T21:26:20;3.83;;;1.65;;
65086;SDS011;52094;51.234;-2.310;2022-07-18T21:30:17;4.18;;;2.25;;
65086;SDS011;52094;51.234;-2.310;2022-07-18T21:34:04;5.72;;;2.50;;
65086;SDS011;52094;51.234;-2.310;2022-07-18T21:37:47;4.05;;;1.77;;
65086;SDS011;52094;51.234;-2.310;2022-07-18T21:41:32;3.95;;;2.08;;
65086;SDS011;52094;51.234;-2.310;2022-07-18T21:45:17;4.07;;;2.13;;
65086;SDS011;52094;51.234;-2.310;2022-07-18T21:49:03;5.72;;;2.17;;
65086;SDS011;52094;51.234;-2.310;2022-07-18T21:52:47;4.97;;;2.10;;
65086;SDS011;52094;51.234;-2.310;2022-07-18T21:56:43;4.70;;;2.25;;
65086;SDS011;52094;51.234;-2.310;2022-07-18T22:00:26;3.83;;;2.05;;
65086;SDS011;52094;51.234;-2.310;2022-07-18T22:04:13;3.92;;;1.83;;
65086;SDS011;52094;51.234;-2.310;2022-07-18T22:08:09;3.17;;;1.88;;
65086;SDS011;52094;51.234;-2.310;2022-07-18T22:11:52;3.33;;;2.05;;
65086;SDS011;52094;51.234;-2.310;2022-07-18T22:15:41;4.65;;;2.25;;
65086;SDS011;52094;51.234;-2.310;2022-07-18T22:19:37;5.07;;;2.10;;
65086;SDS011;52094;51.234;-2.310;2022-07-18T22:23:21;4.13;;;2.15;;
65086;SDS011;52094;51.234;-2.310;2022-07-18T22:27:07;3.10;;;1.70;;
65086;SDS011;52094;51.234;-2.310;2022-07-18T22:30:52;4.40;;;2.00;;
65086;SDS011;52094;51.234;-2.310;2022-07-18T22:34:37;5.47;;;2.25;;
65086;SDS011;52094;51.234;-2.310;2022-07-18T22:42:19;3.72;;;2.10;;
65086;SDS011;52094;51.234;-2.310;2022-07-18T22:46:04;3.65;;;1.83;;
65086;SDS011;52094;51.234;-2.310;2022-07-18T22:49:54;4.38;;;2.05;;
65086;SDS011;52094;51.234;-2.310;2022-07-18T22:53:53;4.30;;;1.80;;
65086;SDS011;52094;51.234;-2.310;2022-07-18T22:57:48;3.63;;;2.03;;
65086;SDS011;52094;51.234;-2.310;2022-07-18T23:01:34;3.63;;;1.93;;
65086;SDS011;52094;51.234;-2.310;2022-07-18T23:05:37;3.30;;;2.00;;
65086;SDS011;52094;51.234;-2.310;2022-07-18T23:09:21;3.53;;;1.80;;
65086;SDS011;52094;51.234;-2.310;2022-07-18T23:13:05;3.97;;;2.03;;
65086;SDS011;52094;51.234;-2.310;2022-07-18T23:16:52;4.00;;;2.00;;
65086;SDS011;52094;51.234;-2.310;2022-07-18T23:20:39;5.25;;;2.08;;
65086;SDS011;52094;51.234;-2.310;2022-07-18T23:24:30;4.88;;;2.25;;
65086;SDS011;52094;51.234;-2.310;2022-07-18T23:28:14;3.85;;;2.10;;
65086;SDS011;52094;51.234;-2.310;2022-07-18T23:32:01;5.25;;;2.10;;
65086;SDS011;52094;51.234;-2.310;2022-07-18T23:35:43;3.83;;;2.53;;
65086;SDS011;52094;51.234;-2.310;2022-07-18T23:39:27;4.30;;;2.08;;
65086;SDS011;52094;51.234;-2.310;2022-07-18T23:43:14;4.18;;;2.20;;
65086;SDS011;52094;51.234;-2.310;2022-07-18T23:46:57;5.43;;;2.17;;
65086;SDS011;52094;51.234;-2.310;2022-07-18T23:50:46;4.90;;;2.27;;
65086;SDS011;52094;51.234;-2.310;2022-07-18T23:54:33;3.50;;;2.10;;
65086;SDS011;52094;51.234;-2.310;2022-07-18T23:58:35;5.85;;;2.30;;
